This is the latest recevied weather packets stored in our database for station/object G8PZT. If no packets are shown the sender has not sent any weather packets the latest 10 day(s).
| Time | Temp. | Humidity | Pressure | Rain* | Wind** | Luminosity | Snow |
|---|---|---|---|---|---|---|---|
| 1787776120 | 20° C | 49% | - | 0 mm | - | - | - |
| 1787775602 | 20° C | 52% | - | 0 mm | - | - | - |
| 1787775520 | 20° C | 52% | - | 0 mm | - | - | - |
| 1787774920 | 20° C | 58% | - | 0 mm | - | - | - |
| 1787774402 | 20° C | 57% | - | 0 mm | - | - | - |
| 1787774320 | 20° C | 56% | - | 0 mm | - | - | - |
| 1787773720 | 20.56° C | 56% | - | 0 mm | - | - | - |
| 1787773202 | 20.56° C | 56% | - | 0 mm | - | - | - |
| 1787773120 | 20.56° C | 56% | - | 0 mm | - | - | - |
| 1787772519 | 20.56° C | 55% | - | 0 mm | - | - | - |
| 1787772003 | 20.56° C | 55% | - | 0 mm | - | - | - |
| 1787771919 | 20.56° C | 55% | - | 0 mm | - | - | - |
| 1787770802 | 21.11° C | 52% | - | 0 mm | - | - | - |
| 1787770719 | 21.11° C | 52% | - | 0 mm | - | - | - |
| 1787770119 | 21.67° C | 50% | - | 0 mm | - | - | - |
| 1787769602 | 21.67° C | 48% | - | 0 mm | - | - | - |
| 1787769520 | 21.67° C | 47% | - | 0 mm | - | - | - |
| 1787768920 | 22.78° C | 39% | - | 0 mm | - | - | - |
| 1787768403 | 22.78° C | 39% | - | 0 mm | - | - | - |
| 1787768320 | 22.78° C | 39% | - | 0 mm | - | - | - |
| 1787767720 | 23.33° C | 37% | - | 0 mm | - | - | - |
| 1787767202 | 23.33° C | 37% | - | 0 mm | - | - | - |
| 1787767120 | 23.33° C | 37% | - | 0 mm | - | - | - |
| 1787766520 | 23.33° C | 37% | - | 0 mm | - | - | - |
| 1787765920 | 23.33° C | 33% | - | 0 mm | - | - | - |
* Rain latest hour (hover to see other rain measurements)
** Current wind speed in m/s (hover to see current wind gust speed)